Accueil
METAR-TAF:

METAR-TAF

Aéroports :

Hartness State Airport

Springfield, Vermont, États-Unis

latitude: 43-20-33N, longitude: 072-31-18W, altitude: 175 m

Observation

Le bulletin a été fait il y a 1 heure et 22 minutes, à 12:54 UTC
Vent 5 kt de sud-est
Température 10°C
Humidité 57%
Pression 1022 hPa
Visibilité: 16.1 km
Quelques nuages à une hauteur de 4700 ft

METAR: KVSF 011254Z AUTO 13005KT 10SM FEW047 10/02 A3019 RMK AO2 SLP229 T01000017 $

Heure: 10:16 (14:16 UTC)


TAF: absent

Observations et prévisions météorologiques de plus de 4000 aéroports (messages METAR et TAF).

Les stations disponibles sont représentées par des disques jaunes et rouges sur la carte.

Passer la souris dessus pour voir le nom de la station.

Cliquer dessus pour voir les observations et prévisions météorologiques.

Pour changer de carte: cliquez sur les boutons verts avec une croix noire pour zoomer, sur le bouton vert avec un tiret pour effectuer un zoom arrière, ou sur les flèches vertes pour les cartes adjacentes.


METAR-TAF: